Time;durP1;ratioP1;P1;durP2;ratioP2;P2;SDS_P1;SDS_P2;PMS_P1;PMS_P2;Temp;Humidity;BMP_temperature;BMP_pressure;BME280_temperature;BME280_humidity;BME280_pressure;Samples;Min_cycle;Max_cycle;Signal;HPM_P1;HPM_P2
2022/04/30 00:00:02;;;;;;;0.50;0.50;;;12.70;94.80;;;;;;4404671;32;20069;-66
2022/04/30 00:02:28;;;;;;;1.33;0.77;;;12.50;95.40;;;;;;4427447;32;20711;-66
2022/04/30 00:04:53;;;;;;;1.80;0.73;;;12.50;95.30;;;;;;4425081;32;20065;-67
2022/04/30 00:07:20;;;;;;;0.43;0.43;;;12.60;95.20;;;;;;4426838;32;20422;-67
2022/04/30 00:09:47;;;;;;;1.45;0.80;;;12.50;95.00;;;;;;4411536;32;20066;-67
2022/04/30 00:12:13;;;;;;;4.03;1.60;;;12.50;95.20;;;;;;4425283;32;20061;-66
2022/04/30 00:14:40;;;;;;;2.75;0.82;;;12.50;95.20;;;;;;4426237;32;21638;-66
2022/04/30 00:17:06;;;;;;;10.70;0.75;;;12.50;94.80;;;;;;4426782;32;20093;-66
2022/04/30 00:19:32;;;;;;;1.15;0.85;;;12.30;95.10;;;;;;4411712;32;20058;-66
2022/04/30 00:21:58;;;;;;;0.80;0.80;;;12.40;95.40;;;;;;4412292;32;20132;-66
2022/04/30 00:24:24;;;;;;;0.70;0.70;;;12.50;95.20;;;;;;4424556;32;20120;-67
2022/04/30 00:26:50;;;;;;;1.42;1.10;;;12.60;95.10;;;;;;4426232;32;20077;-66
2022/04/30 00:29:16;;;;;;;0.47;0.47;;;12.30;95.30;;;;;;4405621;32;20074;-66
2022/04/30 00:31:42;;;;;;;0.98;0.70;;;12.20;95.40;;;;;;4416359;32;20128;-66
2022/04/30 00:34:07;;;;;;;0.50;0.50;;;12.30;96.00;;;;;;4411961;32;20529;-66
2022/04/30 00:36:33;;;;;;;2.58;1.00;;;12.30;96.00;;;;;;4433124;32;20077;-66
2022/04/30 00:38:59;;;;;;;5.40;1.67;;;12.30;95.90;;;;;;4439451;32;20483;-66
2022/04/30 00:41:24;;;;;;;4.65;1.05;;;12.40;95.40;;;;;;4437257;32;20070;-65
2022/04/30 00:43:53;;;;;;;0.60;0.60;;;12.40;95.60;;;;;;4439694;32;20057;-66
2022/04/30 00:46:20;;;;;;;1.05;0.77;;;12.40;95.80;;;;;;4439014;32;20147;-66
2022/04/30 00:48:46;;;;;;;1.98;1.00;;;12.40;95.80;;;;;;4423571;32;20113;-66
2022/04/30 00:51:15;;;;;;;0.85;0.77;;;12.20;96.20;;;;;;4439868;32;20073;-65
2022/04/30 00:53:47;;;;;;;1.75;0.98;;;12.00;96.30;;;;;;4438193;32;20073;-65
2022/04/30 00:56:14;;;;;;;0.47;0.47;;;12.10;96.60;;;;;;4440172;32;20137;-66
2022/04/30 00:58:42;;;;;;;3.40;1.55;;;12.10;96.30;;;;;;4424442;32;20108;-65
2022/04/30 01:01:08;;;;;;;2.75;0.80;;;12.20;96.20;;;;;;4410638;32;20057;-66
2022/04/30 01:03:34;;;;;;;0.50;0.50;;;12.20;96.20;;;;;;4440165;32;20132;-66
2022/04/30 01:06:00;;;;;;;0.70;0.70;;;12.10;96.20;;;;;;4440420;32;20510;-66
2022/04/30 01:08:27;;;;;;;1.73;1.17;;;12.00;97.00;;;;;;4437351;32;20084;-66
2022/04/30 01:11:00;;;;;;;1.73;1.23;;;12.00;96.80;;;;;;4438981;32;21507;-66
2022/04/30 01:13:27;;;;;;;0.57;0.57;;;12.00;97.00;;;;;;4436488;32;20113;-66
2022/04/30 01:15:52;;;;;;;0.88;0.57;;;12.00;97.10;;;;;;4441925;32;20069;-66
2022/04/30 01:18:19;;;;;;;0.80;0.80;;;11.80;97.40;;;;;;4440426;32;20131;-66
2022/04/30 01:20:51;;;;;;;0.70;0.68;;;11.70;98.10;;;;;;4438868;32;20542;-66
2022/04/30 01:23:17;;;;;;;0.45;0.45;;;11.60;98.30;;;;;;4439866;32;20176;-66
2022/04/30 01:25:46;;;;;;;7.62;1.73;;;11.60;98.90;;;;;;4427495;32;20065;-66
2022/04/30 01:28:12;;;;;;;0.80;0.75;;;11.60;98.80;;;;;;4429800;32;20126;-66
2022/04/30 01:30:37;;;;;;;0.70;0.70;;;11.80;98.80;;;;;;4420644;32;20074;-66
2022/04/30 01:37:50;;;;;;;0.32;0.32;;;11.80;97.80;;;;;;4425811;32;20097;-66
2022/04/30 01:38:34;;;;;;;0.90;0.85;;;11.80;97.60;;;;;;4414354;32;20447;-66
2022/04/30 01:41:00;;;;;;;2.50;1.52;;;11.80;97.40;;;;;;4427981;32;20109;-66
2022/04/30 01:43:26;;;;;;;2.05;0.75;;;11.80;97.80;;;;;;4425236;32;20430;-66
2022/04/30 01:45:53;;;;;;;1.02;0.77;;;11.80;98.30;;;;;;4426992;32;20093;-66
2022/04/30 01:48:20;;;;;;;0.57;0.57;;;11.90;97.80;;;;;;4426476;32;20541;-66
2022/04/30 01:50:46;;;;;;;0.52;0.52;;;11.90;98.20;;;;;;4427663;32;20065;-66
2022/04/30 01:53:12;;;;;;;0.52;0.52;;;11.70;98.10;;;;;;4424631;32;20137;-66
2022/04/30 01:55:38;;;;;;;0.65;0.65;;;11.60;98.40;;;;;;4430964;32;20086;-66
2022/04/30 01:58:04;;;;;;;0.57;0.57;;;11.70;98.60;;;;;;4412127;32;20073;-67
2022/04/30 02:00:30;;;;;;;1.67;0.80;;;11.70;98.10;;;;;;4407572;32;20113;-65
2022/04/30 02:03:00;;;;;;;0.50;0.50;;;11.70;98.20;;;;;;4426265;32;20399;-68
2022/04/30 02:05:26;;;;;;;0.77;0.40;;;11.50;98.80;;;;;;4427838;32;20073;-68
2022/04/30 02:07:59;;;;;;;0.52;0.52;;;11.50;98.60;;;;;;4425458;32;20073;-67
2022/04/30 02:10:25;;;;;;;0.55;0.55;;;11.50;98.70;;;;;;4424177;32;20093;-66
2022/04/30 02:12:51;;;;;;;0.45;0.43;;;11.50;98.80;;;;;;4424882;32;20077;-66
2022/04/30 02:15:18;;;;;;;10.60;1.10;;;11.30;99.40;;;;;;4428803;32;20073;-66
2022/04/30 02:17:46;;;;;;;0.80;0.65;;;11.20;99.90;;;;;;4413444;32;20065;-65
2022/04/30 02:20:29;;;;;;;0.90;0.85;;;11.20;99.50;;;;;;4426228;32;20085;-65
2022/04/30 02:22:57;;;;;;;3.08;0.68;;;11.20;99.60;;;;;;4426021;32;20081;-65
2022/04/30 02:25:23;;;;;;;0.60;0.60;;;11.20;99.90;;;;;;4425159;32;20061;-65
2022/04/30 02:27:52;;;;;;;0.95;0.85;;;11.40;99.50;;;;;;4416068;32;20296;-66
2022/04/30 02:30:19;;;;;;;0.40;0.40;;;11.30;99.70;;;;;;4401854;32;20133;-66
2022/04/30 02:32:55;;;;;;;7.07;2.33;;;11.20;99.90;;;;;;4427127;32;21426;-66
2022/04/30 02:35:24;;;;;;;4.40;1.67;;;11.20;99.90;;;;;;4426519;32;20116;-65
2022/04/30 02:37:50;;;;;;;0.50;0.50;;;11.20;99.90;;;;;;4412611;32;20073;-67
2022/04/30 02:40:17;;;;;;;1.48;0.65;;;11.20;99.90;;;;;;4421900;32;20077;-65
2022/04/30 02:42:44;;;;;;;1.67;1.25;;;11.30;99.80;;;;;;4407862;32;20080;-65
2022/04/30 02:45:11;;;;;;;0.60;0.60;;;11.30;99.90;;;;;;4422723;32;20120;-65
2022/04/30 02:47:38;;;;;;;0.55;0.55;;;11.30;99.90;;;;;;4396050;32;20124;-65
2022/04/30 02:50:08;;;;;;;0.70;0.70;;;11.20;99.90;;;;;;4423542;32;20053;-65
2022/04/30 02:52:35;;;;;;;4.65;2.00;;;11.20;99.90;;;;;;4422069;32;20426;-65
2022/04/30 02:55:00;;;;;;;0.55;0.55;;;11.20;99.90;;;;;;4422901;32;20061;-65
2022/04/30 02:57:37;;;;;;;0.62;0.62;;;11.00;99.90;;;;;;4403949;32;20107;-65
2022/04/30 03:00:06;;;;;;;0.70;0.70;;;10.90;99.90;;;;;;4402458;32;20077;-66
2022/04/30 03:02:31;;;;;;;0.50;0.50;;;10.90;99.90;;;;;;4428078;32;20081;-66
2022/04/30 03:04:56;;;;;;;0.73;0.60;;;10.70;99.90;;;;;;4427310;32;20818;-66
2022/04/30 03:07:22;;;;;;;0.50;0.50;;;10.60;99.90;;;;;;4425626;32;20068;-66
2022/04/30 03:09:49;;;;;;;2.00;1.10;;;10.80;99.90;;;;;;4425345;32;20089;-66
2022/04/30 03:12:16;;;;;;;6.32;1.23;;;10.90;99.90;;;;;;4426041;32;20397;-66
2022/04/30 03:14:42;;;;;;;0.93;0.85;;;10.90;99.90;;;;;;4424693;32;20072;-66
2022/04/30 03:21:42;;;;;;;1.17;0.50;;;11.00;99.90;;;;;;4413158;32;20133;-66
2022/04/30 03:22:40;;;;;;;2.17;0.70;;;11.20;99.90;;;;;;4432686;32;20117;-66
2022/04/30 03:25:06;;;;;;;0.65;0.60;;;11.00;99.90;;;;;;4423633;32;20464;-66
2022/04/30 03:27:32;;;;;;;1.65;1.25;;;10.90;99.90;;;;;;4404998;32;20076;-66
2022/04/30 03:29:58;;;;;;;4.37;2.33;;;10.90;99.90;;;;;;4401542;32;20117;-66
2022/04/30 03:32:24;;;;;;;0.47;0.47;;;11.00;99.90;;;;;;4423649;32;20119;-66
2022/04/30 03:34:50;;;;;;;0.40;0.40;;;11.10;99.90;;;;;;4426344;32;20082;-66
2022/04/30 03:37:16;;;;;;;0.32;0.32;;;11.20;99.90;;;;;;4425332;32;20077;-66
2022/04/30 03:39:41;;;;;;;0.82;0.62;;;11.20;99.90;;;;;;4428045;32;20864;-66
2022/04/30 03:42:07;;;;;;;0.30;0.30;;;11.00;99.90;;;;;;4423992;32;20104;-66
2022/04/30 03:44:32;;;;;;;0.65;0.65;;;10.70;99.90;;;;;;4426458;32;20084;-66
2022/04/30 03:46:58;;;;;;;0.50;0.50;;;10.70;99.90;;;;;;4426674;32;20142;-66
2022/04/30 03:49:23;;;;;;;1.00;0.85;;;10.80;99.90;;;;;;4424322;32;20577;-65
2022/04/30 03:51:49;;;;;;;0.43;0.43;;;10.90;99.90;;;;;;4426810;32;20411;-66
2022/04/30 03:54:14;;;;;;;0.52;0.52;;;11.00;99.90;;;;;;4425045;32;20088;-66
2022/04/30 03:56:40;;;;;;;0.40;0.40;;;11.00;99.90;;;;;;4428549;32;20520;-65
2022/04/30 03:59:06;;;;;;;0.60;0.60;;;11.00;99.90;;;;;;4408235;32;20077;-66
2022/04/30 04:01:32;;;;;;;0.60;0.60;;;11.00;99.90;;;;;;4413463;32;20062;-66
2022/04/30 04:04:00;;;;;;;3.62;0.90;;;10.80;99.90;;;;;;4426183;32;20115;-65
2022/04/30 04:06:26;;;;;;;0.35;0.35;;;10.70;99.90;;;;;;4409708;32;20498;-66
2022/04/30 04:08:52;;;;;;;2.40;1.15;;;10.80;99.90;;;;;;4423738;32;20350;-67
2022/04/30 04:11:18;;;;;;;0.50;0.50;;;10.80;99.90;;;;;;4422822;32;20149;-66
2022/04/30 04:17:44;;;;;;;0.50;0.50;;;10.80;99.90;;;;;;4415415;32;20112;-66
2022/04/30 04:19:14;;;;;;;0.47;0.47;;;10.90;99.90;;;;;;4408284;32;20533;-66
2022/04/30 04:21:40;;;;;;;0.60;0.60;;;10.90;99.90;;;;;;4427199;32;20101;-66
2022/04/30 04:26:06;;;;;;;1.45;1.08;;;10.90;99.90;;;;;;4425114;32;20077;-65
2022/04/30 04:26:52;;;;;;;0.90;0.90;;;11.00;99.90;;;;;;4410771;32;20106;-66
2022/04/30 04:29:17;;;;;;;0.40;0.40;;;11.00;99.90;;;;;;4406313;32;20487;-65
2022/04/30 04:31:44;;;;;;;2.65;1.25;;;10.90;99.90;;;;;;4421054;32;20073;-66
2022/04/30 04:34:10;;;;;;;0.73;0.52;;;10.90;99.90;;;;;;4426133;32;20489;-65
2022/04/30 04:36:36;;;;;;;0.70;0.70;;;10.90;99.90;;;;;;4419699;32;20078;-65
2022/04/30 04:39:08;;;;;;;1.85;1.35;;;10.80;99.90;;;;;;4426705;32;20061;-65
2022/04/30 04:41:34;;;;;;;0.45;0.40;;;10.80;99.90;;;;;;4425368;32;20561;-66
2022/04/30 04:44:02;;;;;;;1.25;0.82;;;10.70;99.90;;;;;;4431309;32;20061;-65
2022/04/30 04:46:27;;;;;;;0.60;0.60;;;10.60;99.90;;;;;;4426516;32;20109;-66
2022/04/30 04:48:53;;;;;;;0.75;0.65;;;10.70;99.90;;;;;;4424512;32;20566;-66
2022/04/30 04:51:20;;;;;;;0.50;0.50;;;10.80;99.90;;;;;;4426138;32;20089;-65
2022/04/30 04:53:45;;;;;;;0.60;0.50;;;10.90;99.90;;;;;;4425705;32;20081;-66
2022/04/30 04:56:11;;;;;;;0.40;0.40;;;11.00;99.90;;;;;;4423290;32;20131;-65
2022/04/30 04:58:36;;;;;;;0.52;0.52;;;11.10;99.90;;;;;;4409630;32;20066;-66
2022/04/30 05:01:02;;;;;;;0.60;0.60;;;11.10;99.90;;;;;;4410270;32;20423;-66
2022/04/30 05:03:27;;;;;;;0.70;0.70;;;11.00;99.90;;;;;;4425197;32;20118;-66
2022/04/30 05:05:52;;;;;;;1.12;0.65;;;11.20;99.90;;;;;;4425806;32;20070;-66
2022/04/30 05:08:18;;;;;;;1.73;0.70;;;11.20;99.90;;;;;;4426660;32;20062;-66
2022/04/30 05:10:44;;;;;;;5.28;0.60;;;11.20;99.90;;;;;;4424923;32;20066;-65
2022/04/30 05:13:09;;;;;;;0.40;0.40;;;11.30;99.90;;;;;;4423686;32;20127;-66
2022/04/30 05:15:35;;;;;;;0.45;0.45;;;11.40;99.90;;;;;;4425668;32;20392;-66
2022/04/30 05:18:01;;;;;;;1.35;1.00;;;11.40;99.90;;;;;;4423916;32;20097;-66
2022/04/30 05:20:27;;;;;;;3.92;1.65;;;11.40;99.90;;;;;;4424803;32;20466;-68
2022/04/30 05:22:52;;;;;;;0.70;0.70;;;11.40;99.90;;;;;;4423322;32;20073;-66
2022/04/30 05:25:18;;;;;;;2.78;1.10;;;11.50;99.90;;;;;;4423167;32;20073;-66
2022/04/30 05:27:43;;;;;;;16.27;2.75;;;11.60;99.90;;;;;;4416419;32;20101;-66
2022/04/30 05:30:09;;;;;;;6.78;1.85;;;11.50;99.90;;;;;;4403145;32;20077;-66
2022/04/30 05:32:35;;;;;;;6.85;0.57;;;11.40;99.90;;;;;;4426777;32;20068;-66
2022/04/30 05:35:00;;;;;;;2.33;1.17;;;11.30;99.90;;;;;;4424152;32;20166;-66
2022/04/30 05:37:26;;;;;;;0.75;0.62;;;11.40;99.90;;;;;;4425747;32;20073;-66
2022/04/30 05:39:51;;;;;;;0.47;0.47;;;11.50;99.90;;;;;;4425186;32;20073;-66
2022/04/30 05:42:17;;;;;;;1.77;1.37;;;11.60;99.90;;;;;;4426913;32;20112;-65
2022/04/30 05:44:42;;;;;;;0.40;0.40;;;11.80;99.90;;;;;;4425992;32;20508;-66
2022/04/30 05:47:08;;;;;;;0.77;0.60;;;11.90;99.90;;;;;;4428132;32;20449;-65
2022/04/30 05:49:34;;;;;;;0.75;0.70;;;11.90;99.90;;;;;;4431092;32;20137;-66
2022/04/30 05:51:59;;;;;;;0.52;0.52;;;11.80;99.90;;;;;;4410870;32;20108;-66
2022/04/30 05:54:25;;;;;;;1.35;0.70;;;11.80;99.90;;;;;;4424961;32;20061;-66
2022/04/30 05:56:50;;;;;;;2.78;0.90;;;11.70;99.90;;;;;;4424644;32;20086;-66
2022/04/30 05:59:18;;;;;;;0.88;0.57;;;11.70;99.90;;;;;;4407520;32;20559;-66
2022/04/30 06:01:43;;;;;;;0.70;0.60;;;11.70;99.90;;;;;;4417973;32;20069;-66
2022/04/30 06:04:09;;;;;;;0.95;0.82;;;11.70;99.90;;;;;;4430114;32;20259;-66
2022/04/30 06:06:34;;;;;;;2.47;1.25;;;11.70;99.90;;;;;;4425815;32;20078;-66
2022/04/30 06:09:00;;;;;;;2.72;1.00;;;11.70;99.90;;;;;;4429037;32;20057;-66
2022/04/30 06:11:25;;;;;;;0.60;0.60;;;11.70;99.90;;;;;;4427117;32;20092;-66
2022/04/30 06:13:51;;;;;;;0.65;0.65;;;11.80;99.90;;;;;;4426510;32;20061;-66
2022/04/30 06:16:16;;;;;;;0.90;0.60;;;11.90;99.90;;;;;;4428313;32;20070;-66
2022/04/30 06:18:42;;;;;;;1.33;1.00;;;11.80;99.90;;;;;;4425083;32;20066;-66
2022/04/30 06:21:08;;;;;;;0.57;0.47;;;11.80;99.90;;;;;;4427241;32;20131;-66
2022/04/30 06:23:33;;;;;;;0.68;0.68;;;11.80;99.90;;;;;;4427695;32;20809;-66
2022/04/30 06:25:59;;;;;;;0.50;0.50;;;11.90;99.90;;;;;;4428348;32;20085;-66
2022/04/30 06:28:25;;;;;;;1.15;0.90;;;11.80;99.90;;;;;;4415640;32;20089;-66
2022/04/30 06:30:51;;;;;;;0.68;0.68;;;11.80;99.90;;;;;;4410939;32;20077;-66
2022/04/30 06:33:16;;;;;;;0.82;0.82;;;11.80;99.90;;;;;;4427139;32;20112;-66
2022/04/30 06:35:43;;;;;;;0.50;0.50;;;11.90;99.90;;;;;;4425885;32;20074;-66
2022/04/30 06:38:09;;;;;;;0.47;0.47;;;12.10;99.90;;;;;;4425137;32;20089;-66
2022/04/30 06:40:34;;;;;;;1.00;1.00;;;12.20;99.90;;;;;;4425422;32;20065;-66
2022/04/30 06:43:00;;;;;;;0.60;0.50;;;12.30;99.90;;;;;;4428549;32;20550;-66
2022/04/30 06:45:26;;;;;;;2.67;0.93;;;12.30;99.90;;;;;;4427657;32;20097;-66
2022/04/30 06:47:51;;;;;;;2.67;0.80;;;12.20;99.90;;;;;;4427907;32;20117;-66
2022/04/30 06:50:17;;;;;;;17.52;0.75;;;12.20;99.90;;;;;;4427044;32;20115;-66
2022/04/30 06:57:26;;;;;;;1.40;0.52;;;12.20;99.90;;;;;;4415286;32;20155;-66
2022/04/30 06:58:13;;;;;;;0.57;0.57;;;12.40;99.90;;;;;;4404822;32;20200;-66
2022/04/30 07:03:24;;;;;;;2.72;0.98;;;12.50;99.90;;;;;;4425751;32;20065;-66
2022/04/30 07:05:51;;;;;;;0.60;0.60;;;12.60;99.90;;;;;;4428086;32;20058;-66
2022/04/30 07:08:17;;;;;;;2.55;1.52;;;12.60;99.90;;;;;;4426274;32;20073;-66
2022/04/30 07:10:42;;;;;;;3.35;1.30;;;12.70;99.90;;;;;;4425409;32;20097;-66
2022/04/30 07:13:08;;;;;;;0.70;0.70;;;12.80;99.90;;;;;;4426298;32;20062;-66
2022/04/30 07:15:33;;;;;;;0.40;0.40;;;12.80;99.90;;;;;;4426511;32;20143;-66
2022/04/30 07:17:59;;;;;;;0.40;0.40;;;12.80;99.90;;;;;;4426062;32;20086;-66
2022/04/30 07:20:24;;;;;;;0.55;0.55;;;12.80;99.90;;;;;;4427348;32;20081;-66
2022/04/30 07:22:50;;;;;;;0.60;0.52;;;12.90;99.90;;;;;;4427001;32;20135;-66
2022/04/30 07:25:15;;;;;;;1.17;0.70;;;13.00;99.90;;;;;;4427029;32;20062;-66
2022/04/30 07:27:41;;;;;;;1.55;1.17;;;12.90;99.90;;;;;;4419128;32;20074;-66
2022/04/30 07:30:06;;;;;;;0.70;0.70;;;13.10;99.90;;;;;;4403265;32;20120;-66
2022/04/30 07:32:32;;;;;;;4.47;0.82;;;13.10;99.90;;;;;;4424730;32;20088;-66
2022/04/30 07:34:57;;;;;;;0.60;0.60;;;13.10;99.90;;;;;;4427463;32;20089;-66
2022/04/30 07:37:23;;;;;;;1.05;0.95;;;13.20;99.90;;;;;;4433978;32;82926;-66
2022/04/30 07:39:48;;;;;;;0.73;0.70;;;13.30;99.90;;;;;;4438508;32;20072;-66
2022/04/30 07:42:14;;;;;;;0.60;0.60;;;13.30;99.90;;;;;;4438911;32;20053;-66
2022/04/30 07:44:40;;;;;;;0.68;0.68;;;13.10;99.90;;;;;;4443192;32;20164;-66
2022/04/30 07:47:08;;;;;;;0.52;0.52;;;13.30;99.90;;;;;;4442462;32;20066;-66
2022/04/30 07:49:33;;;;;;;4.12;1.75;;;13.40;99.80;;;;;;4442113;32;20065;-66
2022/04/30 07:51:58;;;;;;;0.40;0.40;;;13.50;99.90;;;;;;4440307;32;20073;-66
2022/04/30 07:54:25;;;;;;;0.40;0.40;;;13.50;99.90;;;;;;4441305;32;20085;-66
2022/04/30 07:56:53;;;;;;;0.50;0.50;;;13.60;99.40;;;;;;4424826;32;20089;-66
2022/04/30 07:59:19;;;;;;;4.05;0.75;;;13.70;99.30;;;;;;4420006;32;20077;-66
2022/04/30 08:01:44;;;;;;;1.10;0.95;;;13.90;99.00;;;;;;4415747;32;20084;-65
2022/04/30 08:04:10;;;;;;;0.55;0.55;;;14.00;98.80;;;;;;4439620;32;20090;-66
2022/04/30 08:06:35;;;;;;;0.30;0.30;;;14.00;98.50;;;;;;4438046;32;20112;-66
2022/04/30 08:09:01;;;;;;;0.40;0.40;;;14.10;98.30;;;;;;4440018;32;20417;-66
2022/04/30 08:11:26;;;;;;;8.07;0.77;;;14.20;98.60;;;;;;4440632;32;20089;-66
2022/04/30 08:13:52;;;;;;;0.45;0.45;;;14.40;97.40;;;;;;4426563;32;20465;-67
2022/04/30 08:16:17;;;;;;;0.50;0.50;;;14.40;97.70;;;;;;4439838;32;20077;-67
2022/04/30 08:18:43;;;;;;;0.45;0.45;;;14.30;97.90;;;;;;4440383;32;20076;-66
2022/04/30 08:21:08;;;;;;;0.50;0.50;;;14.40;98.00;;;;;;4440186;32;20061;-67
2022/04/30 08:23:34;;;;;;;0.68;0.68;;;14.60;97.80;;;;;;4440785;32;20077;-66
2022/04/30 08:26:01;;;;;;;0.98;0.73;;;14.70;97.70;;;;;;4439624;32;20057;-67
2022/04/30 08:28:27;;;;;;;0.62;0.62;;;14.80;96.50;;;;;;4426524;32;20521;-67
2022/04/30 08:30:52;;;;;;;1.17;0.93;;;14.80;96.40;;;;;;4411051;32;20061;-66
2022/04/30 08:33:18;;;;;;;0.80;0.55;;;14.60;96.10;;;;;;4438312;32;20207;-67
2022/04/30 08:35:43;;;;;;;0.40;0.40;;;14.60;96.70;;;;;;4434490;32;20085;-67
2022/04/30 08:38:09;;;;;;;1.37;0.75;;;14.60;97.00;;;;;;4426206;32;20090;-66
2022/04/30 08:40:35;;;;;;;1.98;0.85;;;14.60;97.90;;;;;;4424742;32;20086;-66
2022/04/30 08:43:09;;;;;;;3.45;0.85;;;14.50;97.30;;;;;;4421832;32;20061;-66
2022/04/30 08:45:38;;;;;;;7.57;1.20;;;14.50;98.10;;;;;;4424807;32;20089;-67
2022/04/30 08:48:07;;;;;;;0.62;0.62;;;14.60;97.40;;;;;;4426250;32;20074;-66
2022/04/30 08:50:33;;;;;;;16.25;0.68;;;14.40;97.40;;;;;;4422124;32;20475;-66
2022/04/30 08:52:58;;;;;;;6.82;1.35;;;14.40;97.30;;;;;;4425467;32;20062;-66
2022/04/30 08:55:24;;;;;;;0.30;0.30;;;14.70;97.40;;;;;;4425801;32;20081;-66
2022/04/30 08:57:49;;;;;;;0.20;0.20;;;14.80;96.30;;;;;;4416754;32;20105;-67
2022/04/30 09:00:15;;;;;;;1.00;0.88;;;14.80;96.10;;;;;;4401670;32;20669;-66
2022/04/30 09:02:59;;;;;;;0.30;0.30;;;14.70;96.70;;;;;;4427953;32;20077;-66
2022/04/30 09:05:34;;;;;;;10.13;3.60;;;14.90;96.90;;;;;;4409438;32;20097;-66
2022/04/30 09:08:01;;;;;;;0.47;0.47;;;15.00;97.70;;;;;;4421328;32;20077;-67
2022/04/30 09:10:29;;;;;;;0.93;0.70;;;15.20;97.00;;;;;;4421813;32;20094;-66
2022/04/30 09:13:16;;;;;;;0.65;0.65;;;15.30;96.40;;;;;;4407928;32;20102;-67
2022/04/30 09:15:44;;;;;;;0.40;0.40;;;15.50;95.30;;;;;;4415340;32;20078;-67
2022/04/30 09:18:11;;;;;;;0.57;0.57;;;15.80;94.30;;;;;;4431545;32;20119;-67
2022/04/30 09:20:56;;;;;;;0.75;0.75;;;15.70;93.70;;;;;;4423764;32;20106;-67
2022/04/30 09:23:29;;;;;;;0.62;0.50;;;15.80;94.70;;;;;;4416271;32;20093;-67
2022/04/30 09:25:56;;;;;;;1.58;0.73;;;16.00;94.90;;;;;;4426212;32;20093;-67
2022/04/30 09:28:27;;;;;;;0.40;0.40;;;16.20;94.50;;;;;;4414085;32;20430;-67
2022/04/30 09:31:09;;;;;;;;;;;16.40;93.40;;;;;;4414241;32;20074;-67
2022/04/30 09:33:43;;;;;;;0.62;0.45;;;16.60;93.80;;;;;;4420297;32;20074;-67
2022/04/30 09:38:08;;;;;;;2.50;0.73;;;16.70;92.90;;;;;;4418014;32;20134;-67
2022/04/30 09:38:54;;;;;;;0.57;0.57;;;16.80;92.60;;;;;;4425823;32;20584;-67
2022/04/30 09:41:25;;;;;;;0.40;0.40;;;16.80;92.90;;;;;;4424682;32;20408;-67
2022/04/30 09:44:00;;;;;;;2.12;1.17;;;16.90;92.10;;;;;;4423670;32;20100;-67
2022/04/30 09:46:26;;;;;;;2.50;1.25;;;16.90;92.00;;;;;;4438243;32;20139;-67
2022/04/30 09:54:08;;;;;;;0.37;0.37;;;17.00;91.70;;;;;;4426752;32;20082;-67
2022/04/30 09:54:26;;;;;;;1.98;1.05;;;17.10;92.20;;;;;;4426384;32;20421;-66
2022/04/30 09:56:53;;;;;;;0.98;0.90;;;17.50;90.80;;;;;;4436544;32;20088;-67
2022/04/30 09:59:22;;;;;;;0.70;0.70;;;17.70;91.20;;;;;;4405735;32;20046;-66
2022/04/30 10:01:49;;;;;;;0.50;0.50;;;18.10;89.80;;;;;;4433032;32;20455;-67
2022/04/30 10:04:16;;;;;;;1.40;1.30;;;18.10;87.70;;;;;;4438342;32;20489;-67
2022/04/30 10:06:45;;;;;;;1.00;0.82;;;18.00;88.10;;;;;;4438209;32;20069;-66
2022/04/30 10:09:14;;;;;;;1.55;0.50;;;17.70;89.80;;;;;;4426114;32;20533;-67
2022/04/30 10:11:54;;;;;;;0.40;0.40;;;17.70;89.90;;;;;;4437174;32;20323;-66
2022/04/30 10:14:45;;;;;;;0.73;0.73;;;17.90;89.00;;;;;;4426071;32;20505;-67
2022/04/30 10:17:13;;;;;;;6.72;2.30;;;18.10;90.00;;;;;;4438663;32;20096;-66
2022/04/30 10:19:41;;;;;;;0.50;0.50;;;18.30;88.90;;;;;;4439598;32;20057;-66
2022/04/30 10:22:10;;;;;;;0.45;0.45;;;18.60;90.20;;;;;;4439426;32;20077;-67
2022/04/30 10:24:40;;;;;;;5.43;1.55;;;18.80;87.00;;;;;;4413973;32;20457;-67
2022/04/30 10:27:05;;;;;;;1.13;0.60;;;18.60;86.70;;;;;;4435290;32;20102;-67
2022/04/30 10:29:31;;;;;;;1.33;1.23;;;18.60;87.60;;;;;;4416605;32;20053;-66
2022/04/30 10:31:56;;;;;;;0.50;0.50;;;18.40;85.50;;;;;;4432495;32;20048;-67
2022/04/30 10:34:30;;;;;;;0.82;0.82;;;18.30;86.80;;;;;;4437700;32;20060;-67
2022/04/30 10:37:00;;;;;;;0.30;0.30;;;18.40;86.50;;;;;;4424025;32;20394;-67
2022/04/30 10:39:25;;;;;;;0.40;0.40;;;18.20;87.80;;;;;;4436010;32;20090;-67
2022/04/30 10:41:53;;;;;;;0.90;0.52;;;18.10;87.00;;;;;;4435393;32;20053;-67
2022/04/30 10:44:33;;;;;;;0.77;0.77;;;18.10;86.60;;;;;;4436482;32;21144;-67
2022/04/30 10:47:14;;;;;;;;;;;18.10;89.50;;;;;;4439741;32;20429;-67
2022/04/30 10:49:40;;;;;;;1.23;1.12;;;18.30;87.90;;;;;;4439322;32;20400;-67
2022/04/30 10:52:08;;;;;;;2.03;0.73;;;18.40;86.30;;;;;;4441317;32;20053;-67
2022/04/30 10:54:34;;;;;;;1.37;0.70;;;18.40;86.60;;;;;;4439966;32;20798;-67
2022/04/30 10:57:03;;;;;;;0.40;0.40;;;19.10;83.70;;;;;;4437443;32;20073;-67
2022/04/30 10:59:28;;;;;;;0.50;0.50;;;19.40;84.50;;;;;;4415477;32;20056;-67
2022/04/30 11:01:54;;;;;;;2.08;0.85;;;19.80;81.00;;;;;;4435271;32;20411;-66
2022/04/30 11:04:21;;;;;;;0.50;0.50;;;19.80;81.10;;;;;;4426760;32;20089;-67
2022/04/30 11:06:51;;;;;;;0.40;0.40;;;20.10;78.20;;;;;;4426745;32;20061;-66
2022/04/30 11:09:17;;;;;;;3.83;0.93;;;20.30;77.20;;;;;;4438508;32;20072;-66
2022/04/30 11:11:46;;;;;;;0.65;0.57;;;20.20;79.80;;;;;;4436679;32;20082;-66
2022/04/30 11:14:12;;;;;;;0.57;0.50;;;20.10;80.40;;;;;;4421434;32;20081;-65
2022/04/30 11:16:41;;;;;;;0.35;0.35;;;20.10;79.00;;;;;;4424297;32;20378;-66
2022/04/30 11:19:10;;;;;;;0.88;0.68;;;20.20;77.50;;;;;;4426455;32;20109;-67
2022/04/30 11:21:38;;;;;;;0.30;0.30;;;20.20;80.00;;;;;;4426074;32;20476;-66
2022/04/30 11:24:04;;;;;;;0.70;0.70;;;20.40;80.30;;;;;;4427106;32;20093;-66
2022/04/30 11:26:34;;;;;;;0.30;0.30;;;20.80;76.70;;;;;;4440279;32;20065;-67
2022/04/30 11:29:00;;;;;;;1.17;0.88;;;20.90;75.20;;;;;;4423481;32;20146;-67
2022/04/30 11:31:25;;;;;;;0.30;0.30;;;21.30;74.10;;;;;;4431633;32;20527;-66
2022/04/30 11:33:51;;;;;;;0.40;0.40;;;21.30;76.00;;;;;;4441929;32;20082;-67
2022/04/30 11:36:17;;;;;;;2.80;0.77;;;21.60;73.50;;;;;;4442398;32;19962;-66
2022/04/30 11:38:51;;;;;;;0.40;0.40;;;21.70;74.00;;;;;;4440099;32;20139;-66
2022/04/30 11:41:17;;;;;;;0.47;0.47;;;21.80;73.60;;;;;;4415292;32;20421;-66
2022/04/30 11:43:43;;;;;;;0.40;0.40;;;21.20;76.40;;;;;;4441334;32;20148;-66
2022/04/30 11:46:08;;;;;;;0.52;0.50;;;20.70;74.10;;;;;;4441103;32;20602;-66
2022/04/30 11:48:38;;;;;;;1.23;0.88;;;20.50;76.20;;;;;;4438612;32;20061;-65
2022/04/30 11:51:07;;;;;;;0.40;0.40;;;20.30;75.20;;;;;;4425340;32;20101;-66
2022/04/30 11:53:33;;;;;;;1.33;0.50;;;20.20;77.70;;;;;;4441295;32;20516;-66
2022/04/30 11:55:59;;;;;;;2.20;0.70;;;20.20;75.50;;;;;;4426720;32;20080;-67
2022/04/30 11:58:25;;;;;;;1.42;0.40;;;20.40;79.10;;;;;;4428426;32;20065;-66
2022/04/30 12:00:52;;;;;;;7.50;1.35;;;20.60;73.10;;;;;;4425409;32;20104;-66
2022/04/30 12:03:27;;;;;;;0.68;0.62;;;20.90;72.70;;;;;;4441468;32;20061;-67
2022/04/30 12:05:52;;;;;;;1.08;0.70;;;21.20;74.40;;;;;;4438922;32;20143;-66
2022/04/30 12:08:18;;;;;;;0.40;0.40;;;21.40;72.50;;;;;;4438801;32;20140;-66
2022/04/30 12:10:54;;;;;;;0.45;0.45;;;21.40;71.90;;;;;;4438043;32;20093;-66
2022/04/30 12:13:28;;;;;;;1.77;0.82;;;21.20;72.10;;;;;;4425782;32;20544;-66
2022/04/30 12:16:04;;;;;;;0.80;0.35;;;21.40;71.90;;;;;;4441379;32;20508;-67
2022/04/30 12:25:06;;;;;;;0.57;0.57;;;23.50;67.40;;;;;;4416925;32;20426;-66
2022/04/30 12:27:04;;;;;;;0.68;0.55;;;23.40;67.10;;;;;;4417626;32;20066;-66
2022/04/30 12:29:30;;;;;;;0.88;0.80;;;23.10;67.30;;;;;;4419059;32;20081;-67
2022/04/30 12:31:57;;;;;;;0.95;0.60;;;22.70;67.10;;;;;;4435552;32;20057;-66
2022/04/30 12:34:25;;;;;;;2.28;0.68;;;22.50;67.40;;;;;;4441069;32;20077;-66
2022/04/30 12:36:57;;;;;;;0.20;0.20;;;22.30;66.60;;;;;;4432599;32;20069;-66
2022/04/30 12:39:24;;;;;;;0.28;0.28;;;21.90;69.30;;;;;;4412344;32;20109;-66
2022/04/30 12:41:51;;;;;;;0.52;0.52;;;21.80;68.40;;;;;;4412175;32;20065;-66
2022/04/30 12:44:17;;;;;;;1.33;0.40;;;21.80;69.60;;;;;;4411052;32;20196;-66
2022/04/30 12:46:45;;;;;;;0.40;0.40;;;22.10;68.50;;;;;;4426387;32;20066;-66
2022/04/30 12:49:12;;;;;;;1.95;0.68;;;22.40;68.50;;;;;;4414019;32;20180;-66
2022/04/30 12:51:38;;;;;;;2.83;0.88;;;22.60;67.70;;;;;;4426341;32;20544;-67
2022/04/30 12:54:04;;;;;;;0.35;0.35;;;22.50;67.10;;;;;;4425184;32;20086;-67
2022/04/30 12:56:31;;;;;;;2.20;0.52;;;22.90;67.10;;;;;;4426608;32;20473;-67
2022/04/30 12:58:57;;;;;;;10.85;2.17;;;23.20;67.00;;;;;;4409089;32;20089;-67
2022/04/30 13:01:22;;;;;;;0.30;0.30;;;23.60;65.50;;;;;;4417895;32;20078;-66
2022/04/30 13:03:49;;;;;;;0.50;0.45;;;23.30;63.30;;;;;;4431091;32;20068;-66
2022/04/30 13:06:14;;;;;;;0.40;0.40;;;22.80;65.60;;;;;;4415088;32;20125;-66
2022/04/30 13:13:33;;;;;;;2.83;1.00;;;22.20;67.00;;;;;;4404675;32;20528;-66
2022/04/30 13:14:11;;;;;;;0.47;0.47;;;21.30;65.80;;;;;;4415174;32;20086;-66